In Rescue
 
Open Full Screen Window  High Contrast Mode
Wind Gusting 00 knots
10
March 29, 2020 8:49 PM EDT
Present Weather: Light Snow
Weather Information
Wind Direction
  250 °
Wind Speed
  10 kt (12 mph)
Wind Gust
  00 kt (0 mph)
Altimeter
29.65 in
Visibility
2 1/2 SM
Temperature
06° C
43° F
Dewpoint
04° C
39° F
Humidity
87%
1hr Rain Fall
00.00 in.
24hr Rain Fall
00.51 in.
Sky Condition
Overcast @ 1,000 ft
IFR

METAR KRQB 300049Z AUTO 25010KT 2 1/2SM -SN OVC010 06/04 A2965 RMK AO2 T00550037

FAA Disclaimer: The data displayed is for advisory purposes only and is not to be used for flight planning or operations.